EmailTwitter


Surface observations / France / LFBO (07630)

Regions: Quebec | Canada | USA | Europe | France | UK | Elsewhere
Station
Display
Info & Location for LFBO (07630) | Help decoding METAR

Weather Conditions observed on 2018/05/28 at 09:30 UTC at TOULOUSE/BLAGNAC, FR (LFBO)

Sky conditions: overcast.

Obstruction(s) to Vision: moderate rain.

Temperature: 16.0 Celsius.

Dewpoint: 16.0 Celsius.

Relative Humidity: 100%

Humidex: 21.

Winds: Northwest at 13 km/h or 7 knots.

Mean Sea level Pressure: 101.40 kilopascals.

Horizontal visibility: 4.35 statute miles or 6.96 kilometers.

Height of the Ceiling: 152 metres ( 500 feet ).

Coded METAR:

LFBO 280930Z AUTO 30007KT 7000 RA OVC005/// ///CB 16/16 Q1014 TEMPO 4000 SHRA

BKN015 SCT030TCU FEW050CB=